createdAt,value
2022-10-17T00:00:30.979Z,98937.41
2022-10-17T00:02:57.848Z,98930.91
2022-10-17T00:05:25.041Z,98927.03
2022-10-17T00:07:52.423Z,98925.72
2022-10-17T00:10:20.038Z,98938.94
2022-10-17T00:12:46.930Z,98927.56
2022-10-17T00:15:19.198Z,98929.63
2022-10-17T00:17:45.830Z,98926.41
2022-10-17T00:20:12.928Z,98934.53
2022-10-17T00:22:39.558Z,98934.69
2022-10-17T00:25:06.770Z,98937.16
2022-10-17T00:27:37.504Z,98937.34
2022-10-17T00:30:05.474Z,98944.09
2022-10-17T00:32:32.150Z,98941.72
2022-10-17T00:34:59.077Z,98939.41
2022-10-17T00:37:25.890Z,98942.25
2022-10-17T00:39:53.328Z,98938.31
2022-10-17T00:42:19.784Z,98946.44
2022-10-17T00:44:47.531Z,98940.78
2022-10-17T00:47:19.693Z,98933.81
2022-10-17T00:49:47.596Z,98938.66
2022-10-17T00:52:25.022Z,98936.47
2022-10-17T00:54:56.258Z,98933.13
2022-10-17T00:57:22.814Z,98937.56
2022-10-17T00:59:53.293Z,98934.31
2022-10-17T01:02:21.905Z,98935.94
2022-10-17T01:04:51.658Z,98933.84
2022-10-17T01:07:18.173Z,98940.53
2022-10-17T01:09:46.964Z,98938.66
2022-10-17T01:12:41.499Z,98934.47
2022-10-17T01:15:07.924Z,98943.81
2022-10-17T01:17:52.913Z,98937.47
2022-10-17T01:20:31.134Z,98939.72
2022-10-17T01:23:35.187Z,98937.47
2022-10-17T01:26:36.724Z,98938.94
2022-10-17T01:29:09.836Z,98943.31
2022-10-17T01:32:08.189Z,98948.38
2022-10-17T01:34:58.729Z,98943.09
2022-10-17T01:37:32.642Z,98935.22
2022-10-17T01:40:22.372Z,98947.13
2022-10-17T01:42:58.889Z,98938.59
2022-10-17T01:45:25.493Z,98936.75
2022-10-17T01:47:54.420Z,98939.47
2022-10-17T01:50:45.465Z,98943.31
2022-10-17T01:53:18.088Z,98941.69
2022-10-17T01:55:47.169Z,98946.38
2022-10-17T01:58:41.959Z,98945.41
2022-10-17T02:01:11.257Z,98948.16
2022-10-17T02:03:39.846Z,98946.91
2022-10-17T02:06:06.835Z,98942.56
2022-10-17T02:08:41.955Z,98936.75
2022-10-17T02:11:22.756Z,98937.84
2022-10-17T02:14:20.272Z,98934.03
2022-10-17T02:16:52.730Z,98930.34
2022-10-17T02:19:42.998Z,98934.81
2022-10-17T02:22:21.536Z,98935.81
2022-10-17T02:25:00.182Z,98938.59
2022-10-17T02:27:51.633Z,98941.84
2022-10-17T02:30:35.916Z,98937.75
2022-10-17T02:33:16.800Z,98937.59
2022-10-17T02:35:48.485Z,98942.91
2022-10-17T02:38:16.462Z,98936.97
2022-10-17T02:40:45.564Z,98935.09
2022-10-17T02:43:12.977Z,98936.22
2022-10-17T02:45:40.859Z,98933.56
2022-10-17T02:48:25.049Z,98941.41
2022-10-17T02:51:19.566Z,98937.25
2022-10-17T02:54:06.881Z,98938.28
2022-10-17T02:56:48.940Z,98934.38
2022-10-17T02:59:20.403Z,98943.75
2022-10-17T03:01:47.172Z,98943.59
2022-10-17T03:04:15.044Z,98939.19
2022-10-17T03:06:42.494Z,98944.34
2022-10-17T03:09:09.271Z,98941.41
2022-10-17T03:11:35.947Z,98938.31
2022-10-17T03:14:02.438Z,98934.31
2022-10-17T03:16:29.079Z,98941.97
2022-10-17T03:18:55.902Z,98940.88
2022-10-17T03:21:22.570Z,98947.41
2022-10-17T03:23:49.117Z,98952.22
2022-10-17T03:26:17.134Z,98951.44
2022-10-17T03:28:43.814Z,98964.00
2022-10-17T03:31:14.238Z,98958.56
2022-10-17T03:33:40.921Z,98960.25
2022-10-17T03:36:13.735Z,98952.25
2022-10-17T03:38:40.758Z,98963.56
2022-10-17T03:41:08.257Z,98958.09
2022-10-17T03:43:36.465Z,98953.38
2022-10-17T03:46:03.224Z,98954.63
2022-10-17T03:48:31.317Z,98955.34
2022-10-17T03:51:01.194Z,98958.91
2022-10-17T03:53:28.750Z,98963.63
2022-10-17T03:55:57.531Z,98966.03
2022-10-17T03:58:24.045Z,98968.25
2022-10-17T04:00:52.431Z,98965.94
2022-10-17T04:03:19.133Z,98975.19
2022-10-17T04:05:46.938Z,98974.38
2022-10-17T04:08:13.440Z,98976.59
2022-10-17T04:11:07.757Z,98971.59
2022-10-17T04:13:34.823Z,98968.72
2022-10-17T04:16:06.269Z,98972.66
2022-10-17T04:18:34.902Z,98979.16
2022-10-17T04:21:05.561Z,98972.56
2022-10-17T04:23:32.416Z,98983.88
2022-10-17T04:26:06.442Z,98974.75
2022-10-17T04:28:33.618Z,98976.38
2022-10-17T04:31:08.184Z,98985.66
2022-10-17T04:33:50.367Z,98988.56
2022-10-17T04:36:19.161Z,98983.41
2022-10-17T04:38:46.122Z,98996.75
2022-10-17T04:41:15.443Z,98996.59
2022-10-17T04:43:44.463Z,98996.59
2022-10-17T04:46:15.237Z,98991.75
2022-10-17T04:48:43.212Z,98995.69
2022-10-17T04:51:15.498Z,98990.94
2022-10-17T04:54:17.285Z,98985.47
2022-10-17T04:56:48.506Z,98995.22
2022-10-17T04:59:15.156Z,98994.34
2022-10-17T05:01:43.829Z,98998.00
2022-10-17T05:04:10.431Z,98991.81
2022-10-17T05:06:37.851Z,98989.66
2022-10-17T05:09:17.050Z,98999.06
2022-10-17T05:11:43.747Z,98999.97
2022-10-17T05:14:12.524Z,98998.41
2022-10-17T05:16:39.112Z,99005.09
2022-10-17T05:19:05.680Z,98997.44
2022-10-17T05:21:38.965Z,99001.72
2022-10-17T05:24:09.515Z,99000.53
2022-10-17T05:26:38.631Z,98996.19
2022-10-17T05:29:05.391Z,99002.72
2022-10-17T05:31:35.330Z,98997.44
2022-10-17T05:34:03.406Z,98992.72
2022-10-17T05:36:32.653Z,98994.91
2022-10-17T05:39:00.586Z,99000.44
2022-10-17T05:41:28.230Z,99002.63
2022-10-17T05:43:54.753Z,99010.25
2022-10-17T05:46:33.273Z,99009.13
2022-10-17T05:48:59.772Z,99008.19
2022-10-17T05:51:26.786Z,99011.09
2022-10-17T05:53:56.065Z,99018.25
2022-10-17T05:56:26.213Z,99011.78
2022-10-17T05:58:56.291Z,99000.44
2022-10-17T06:01:45.096Z,99005.72
2022-10-17T06:04:11.740Z,99006.75
2022-10-17T06:06:40.166Z,99012.16
2022-10-17T06:09:08.041Z,99014.88
2022-10-17T06:11:37.971Z,99024.25
2022-10-17T06:14:05.986Z,99017.69
2022-10-17T06:16:32.646Z,99018.50
2022-10-17T06:18:59.276Z,99027.25
2022-10-17T06:21:28.155Z,99031.84
2022-10-17T06:24:05.625Z,99029.50
2022-10-17T06:26:35.002Z,99034.44
2022-10-17T06:29:01.751Z,99039.50
2022-10-17T06:31:33.565Z,99045.22
2022-10-17T06:34:00.069Z,99047.69
2022-10-17T06:36:26.668Z,99045.53
2022-10-17T06:38:53.178Z,99050.50
2022-10-17T06:41:25.287Z,99053.03
2022-10-17T06:43:53.693Z,99053.03
2022-10-17T06:46:42.060Z,99056.94
2022-10-17T06:49:10.278Z,99064.84
2022-10-17T06:51:48.601Z,99060.06
2022-10-17T06:54:18.738Z,99069.28
2022-10-17T06:56:48.885Z,99072.22
2022-10-17T06:59:36.394Z,99077.66
2022-10-17T07:02:10.888Z,99081.63
2022-10-17T07:04:37.893Z,99081.41
2022-10-17T07:07:05.131Z,99079.25
2022-10-17T07:09:34.011Z,99081.31
2022-10-17T07:12:00.481Z,99082.38
2022-10-17T07:14:32.048Z,99087.28
2022-10-17T07:16:59.514Z,99089.78
2022-10-17T07:19:28.124Z,99093.44
2022-10-17T07:21:56.211Z,99097.56
2022-10-17T07:24:22.811Z,99095.28
2022-10-17T07:26:54.842Z,99106.31
2022-10-17T07:29:21.605Z,99105.25
2022-10-17T07:32:08.545Z,99110.38
2022-10-17T07:34:36.084Z,99112.00
2022-10-17T07:37:03.949Z,99113.44
2022-10-17T07:39:30.516Z,99112.34
2022-10-17T07:41:58.634Z,99108.06
2022-10-17T07:44:25.188Z,99113.97
2022-10-17T07:46:52.746Z,99115.22
2022-10-17T07:49:19.302Z,99116.16
2022-10-17T07:54:18.782Z,99112.53
2022-10-17T07:56:50.340Z,99117.34
2022-10-17T07:59:18.787Z,99102.06
2022-10-17T08:01:45.531Z,99111.16
2022-10-17T08:04:12.006Z,99113.81
2022-10-17T08:06:38.685Z,99120.78
2022-10-17T08:09:05.367Z,99117.16
2022-10-17T08:11:31.842Z,99119.03
2022-10-17T08:13:58.327Z,99120.41
2022-10-17T08:16:24.745Z,99123.22
2022-10-17T08:18:51.243Z,99117.06
2022-10-17T08:21:17.709Z,99126.59
2022-10-17T08:23:44.239Z,99116.34
2022-10-17T08:26:13.271Z,99119.50
2022-10-17T08:28:40.616Z,99123.44
2022-10-17T08:31:10.176Z,99127.03
2022-10-17T08:33:36.797Z,99122.31
2022-10-17T08:36:04.602Z,99118.34
2022-10-17T08:38:35.343Z,99121.28
2022-10-17T08:41:06.706Z,99118.47
2022-10-17T08:44:15.282Z,99128.50
2022-10-17T08:46:46.929Z,99127.50
2022-10-17T08:49:29.019Z,99125.22
2022-10-17T08:52:04.381Z,99122.09
2022-10-17T08:54:35.771Z,99133.84
2022-10-17T08:57:02.276Z,99120.63
2022-10-17T08:59:30.812Z,99123.91
2022-10-17T09:02:07.002Z,99128.50
2022-10-17T09:05:26.340Z,99122.13
2022-10-17T09:08:02.192Z,99111.97
2022-10-17T09:10:43.742Z,99118.75
2022-10-17T09:13:21.663Z,99118.13
2022-10-17T09:16:31.631Z,99119.44
2022-10-17T09:19:28.480Z,99117.25
2022-10-17T09:22:06.343Z,99120.88
2022-10-17T09:24:42.381Z,99120.78
2022-10-17T09:27:32.496Z,99114.63
2022-10-17T09:30:40.443Z,99115.19
2022-10-17T09:33:42.380Z,99115.84
2022-10-17T09:36:34.293Z,99109.38
2022-10-17T09:39:04.443Z,99110.44
2022-10-17T09:41:45.262Z,99114.91
2022-10-17T09:44:22.553Z,99129.00
2022-10-17T09:47:10.866Z,99126.28
2022-10-17T09:49:42.532Z,99118.50
2022-10-17T09:52:25.269Z,99125.22
2022-10-17T09:55:20.982Z,99124.28
2022-10-17T09:57:59.820Z,99133.91
2022-10-17T10:00:37.845Z,99134.81
2022-10-17T10:03:13.099Z,99133.94
2022-10-17T10:05:40.997Z,99140.16
2022-10-17T10:08:18.964Z,99147.75
2022-10-17T10:10:45.748Z,99160.25
2022-10-17T10:13:15.743Z,99152.56
2022-10-17T10:15:47.744Z,99154.84
2022-10-17T10:18:26.447Z,99158.31
2022-10-17T10:21:20.880Z,99166.16
2022-10-17T10:24:04.373Z,99169.28
2022-10-17T10:26:41.443Z,99167.88
2022-10-17T10:29:34.271Z,99163.22
2022-10-17T10:32:21.614Z,99165.78
2022-10-17T10:34:56.944Z,99158.34
2022-10-17T10:37:26.880Z,99170.06
2022-10-17T10:39:57.418Z,99174.47
2022-10-17T10:42:32.568Z,99169.72
2022-10-17T10:45:23.700Z,99174.13
2022-10-17T10:47:58.908Z,99171.31
2022-10-17T10:50:45.310Z,99174.88
2022-10-17T10:53:20.884Z,99172.50
2022-10-17T10:55:55.333Z,99175.81
2022-10-17T10:58:49.548Z,99185.13
2022-10-17T11:01:28.697Z,99184.63
2022-10-17T11:04:19.651Z,99179.03
2022-10-17T11:06:48.903Z,99177.66
2022-10-17T11:09:24.711Z,99167.63
2022-10-17T11:12:00.350Z,99175.47
2022-10-17T11:14:45.337Z,99182.53
2022-10-17T11:17:42.993Z,99176.31
2022-10-17T11:20:17.989Z,99177.94
2022-10-17T11:22:47.887Z,99179.75
2022-10-17T11:25:39.559Z,99184.09
2022-10-17T11:28:23.578Z,99187.88
2022-10-17T11:31:08.019Z,99187.50
2022-10-17T11:33:48.873Z,99183.88
2022-10-17T11:36:19.436Z,99188.94
2022-10-17T11:38:56.879Z,99182.25
2022-10-17T11:41:34.241Z,99193.53
2022-10-17T11:44:33.071Z,99195.88
2022-10-17T11:47:17.690Z,99179.34
2022-10-17T11:49:54.066Z,99177.38
2022-10-17T11:52:55.919Z,99180.91
2022-10-17T11:55:26.103Z,99166.38
2022-10-17T11:58:05.182Z,99174.72
2022-10-17T12:00:51.599Z,99175.38
2022-10-17T12:03:39.521Z,99181.03
2022-10-17T12:06:29.460Z,99178.28
2022-10-17T12:09:20.656Z,99169.88
2022-10-17T12:11:55.682Z,99172.91
2022-10-17T12:14:46.579Z,99164.25
2022-10-17T12:17:39.280Z,99162.56
2022-10-17T12:20:21.415Z,99168.31
2022-10-17T12:23:02.069Z,99175.91
2022-10-17T12:25:32.684Z,99177.88
2022-10-17T12:28:24.740Z,99177.38
2022-10-17T12:30:56.041Z,99172.50
2022-10-17T12:33:31.423Z,99180.63
2022-10-17T12:36:16.968Z,99178.69
2022-10-17T12:38:47.824Z,99178.09
2022-10-17T12:41:17.304Z,99179.97
2022-10-17T12:43:52.298Z,99174.81
2022-10-17T12:46:48.478Z,99182.00
2022-10-17T12:49:46.610Z,99172.72
2022-10-17T12:52:25.205Z,99164.94
2022-10-17T12:55:10.926Z,99166.81
2022-10-17T12:57:53.937Z,99170.09
2022-10-17T13:00:37.357Z,99178.03
2022-10-17T13:03:14.606Z,99176.94
2022-10-17T13:05:45.398Z,99173.72
2022-10-17T13:08:44.034Z,99178.38
2022-10-17T13:11:11.416Z,99171.78
2022-10-17T13:13:42.858Z,99177.38
2022-10-17T13:16:09.798Z,99177.59
2022-10-17T13:18:36.460Z,99176.97
2022-10-17T13:21:16.128Z,99176.63
2022-10-17T13:23:42.768Z,99180.09
2022-10-17T13:26:20.251Z,99173.66
2022-10-17T13:31:44.348Z,99175.53
2022-10-17T13:34:23.129Z,99179.97
2022-10-17T13:36:57.901Z,99180.16
2022-10-17T13:39:44.948Z,99185.50
2022-10-17T13:42:27.341Z,99183.88
2022-10-17T13:44:54.954Z,99195.38
2022-10-17T13:47:24.393Z,99200.03
2022-10-17T13:49:55.175Z,99201.28
2022-10-17T13:52:25.142Z,99206.84
2022-10-17T13:54:53.760Z,99201.78
2022-10-17T13:57:28.053Z,99206.88
2022-10-17T14:00:01.679Z,99208.00
2022-10-17T14:02:35.024Z,99203.03
2022-10-17T14:05:16.796Z,99209.16
2022-10-17T14:08:15.212Z,99211.97
2022-10-17T14:10:44.687Z,99215.22
2022-10-17T14:13:22.903Z,99212.63
2022-10-17T14:15:50.071Z,99211.72
2022-10-17T14:18:33.311Z,99209.06
2022-10-17T14:23:50.095Z,99214.91
2022-10-17T14:26:16.533Z,99209.31
2022-10-17T14:28:48.441Z,99211.69
2022-10-17T14:31:22.107Z,99216.69
2022-10-17T14:33:51.179Z,99215.41
2022-10-17T14:36:19.256Z,99234.41
2022-10-17T14:38:49.677Z,99230.56
2022-10-17T14:44:24.481Z,99231.06
2022-10-17T14:46:59.327Z,99231.22
2022-10-17T14:49:32.608Z,99231.63
2022-10-17T14:52:28.980Z,99225.44
2022-10-17T14:54:57.875Z,99235.53
2022-10-17T14:57:41.328Z,99240.41
2022-10-17T15:00:09.546Z,99243.34
2022-10-17T15:02:36.106Z,99242.84
2022-10-17T15:05:02.614Z,99248.78
2022-10-17T15:07:29.497Z,99250.88
2022-10-17T15:09:56.020Z,99252.06
2022-10-17T15:12:25.135Z,99254.06
2022-10-17T15:14:52.950Z,99245.59
2022-10-17T15:17:24.198Z,99248.28
2022-10-17T15:19:50.866Z,99258.84
2022-10-17T15:22:18.232Z,99253.69
2022-10-17T15:24:48.209Z,99261.84
2022-10-17T15:27:22.757Z,99266.41
2022-10-17T15:29:50.125Z,99264.88
2022-10-17T15:32:16.653Z,99263.59
2022-10-17T15:34:43.375Z,99258.91
2022-10-17T15:37:24.200Z,99264.63
2022-10-17T15:39:55.153Z,99267.91
2022-10-17T15:42:23.414Z,99259.44
2022-10-17T15:44:50.246Z,99263.25
2022-10-17T15:47:24.294Z,99265.47
2022-10-17T15:49:50.850Z,99271.50
2022-10-17T15:52:17.336Z,99275.09
2022-10-17T15:54:43.942Z,99278.13
2022-10-17T15:57:20.725Z,99282.94
2022-10-17T15:59:48.130Z,99281.41
2022-10-17T16:02:16.719Z,99286.88
2022-10-17T16:04:43.705Z,99282.78
2022-10-17T16:07:10.843Z,99280.31
2022-10-17T16:09:37.501Z,99283.59
2022-10-17T16:12:06.129Z,99281.09
2022-10-17T16:14:33.098Z,99288.31
2022-10-17T16:17:00.200Z,99288.38
2022-10-17T16:19:30.748Z,99297.44
2022-10-17T16:22:00.762Z,99290.00
2022-10-17T16:24:30.110Z,99295.56
2022-10-17T16:26:56.613Z,99300.53
2022-10-17T16:29:23.090Z,99305.34
2022-10-17T16:31:49.534Z,99299.69
2022-10-17T16:34:16.306Z,99307.88
2022-10-17T16:36:43.131Z,99311.81
2022-10-17T16:39:12.931Z,99307.66
2022-10-17T16:41:39.754Z,99300.41
2022-10-17T16:44:14.414Z,99297.81
2022-10-17T16:46:40.983Z,99299.91
2022-10-17T16:49:07.913Z,99306.38
2022-10-17T16:51:35.810Z,99319.31
2022-10-17T16:54:02.601Z,99314.28
2022-10-17T16:56:32.868Z,99307.97
2022-10-17T16:59:00.563Z,99315.66
2022-10-17T17:01:29.287Z,99321.25
2022-10-17T17:03:56.101Z,99321.00
2022-10-17T17:06:28.097Z,99325.91
2022-10-17T17:08:55.737Z,99329.66
2022-10-17T17:11:24.764Z,99328.72
2022-10-17T17:13:51.871Z,99332.19
2022-10-17T17:16:23.287Z,99333.94
2022-10-17T17:18:54.669Z,99338.78
2022-10-17T17:21:21.126Z,99340.72
2022-10-17T17:23:47.621Z,99342.72
2022-10-17T17:26:17.443Z,99341.56
2022-10-17T17:28:44.772Z,99337.28
2022-10-17T17:31:14.691Z,99338.41
2022-10-17T17:33:42.142Z,99336.78
2022-10-17T17:36:12.198Z,99342.13
2022-10-17T17:38:41.148Z,99346.50
2022-10-17T17:41:07.904Z,99356.78
2022-10-17T17:43:35.556Z,99356.78
2022-10-17T17:46:02.408Z,99357.41
2022-10-17T17:48:28.925Z,99358.06
2022-10-17T17:50:55.401Z,99363.69
2022-10-17T17:53:21.841Z,99366.75
2022-10-17T17:55:48.381Z,99363.25
2022-10-17T17:58:14.887Z,99362.88
2022-10-17T18:00:41.559Z,99364.53
2022-10-17T18:03:08.012Z,99368.22
2022-10-17T18:05:34.587Z,99370.50
2022-10-17T18:08:01.152Z,99373.59
2022-10-17T18:10:28.378Z,99373.53
2022-10-17T18:12:54.850Z,99376.47
2022-10-17T18:15:21.339Z,99375.66
2022-10-17T18:17:48.092Z,99378.47
2022-10-17T18:20:14.529Z,99375.00
2022-10-17T18:22:41.093Z,99378.13
2022-10-17T18:25:07.877Z,99378.78
2022-10-17T18:27:34.384Z,99374.91
2022-10-17T18:30:00.870Z,99379.41
2022-10-17T18:32:30.912Z,99379.63
2022-10-17T18:34:57.705Z,99372.88
2022-10-17T18:37:24.208Z,99373.09
2022-10-17T18:39:52.651Z,99377.03
2022-10-17T18:42:19.127Z,99380.72
2022-10-17T18:44:47.216Z,99381.56
2022-10-17T18:47:14.189Z,99389.97
2022-10-17T18:49:40.682Z,99381.81
2022-10-17T18:52:07.252Z,99378.72
2022-10-17T18:54:34.635Z,99386.13
2022-10-17T18:57:01.139Z,99383.06
2022-10-17T18:59:27.757Z,99378.34
2022-10-17T19:01:54.351Z,99377.28
2022-10-17T19:04:20.852Z,99376.25
2022-10-17T19:06:47.355Z,99378.69
2022-10-17T19:09:15.100Z,99377.06
2022-10-17T19:11:42.855Z,99380.41
2022-10-17T19:14:14.942Z,99373.41
2022-10-17T19:16:51.605Z,99369.09
2022-10-17T19:19:23.917Z,99369.69
2022-10-17T19:21:51.092Z,99370.31
2022-10-17T19:24:22.959Z,99375.41
2022-10-17T19:26:52.973Z,99371.13
2022-10-17T19:29:20.749Z,99371.97
2022-10-17T19:31:48.190Z,99368.31
2022-10-17T19:34:15.872Z,99375.44
2022-10-17T19:36:42.834Z,99372.59
2022-10-17T19:39:18.166Z,99373.41
2022-10-17T19:41:46.203Z,99375.47
2022-10-17T19:44:13.897Z,99382.44
2022-10-17T19:46:40.565Z,99381.41
2022-10-17T19:49:07.648Z,99370.34
2022-10-17T19:51:34.431Z,99372.59
2022-10-17T19:54:01.258Z,99369.97
2022-10-17T19:56:30.102Z,99366.50
2022-10-17T19:58:57.708Z,99367.91
2022-10-17T20:01:26.741Z,99372.63
2022-10-17T20:03:54.142Z,99375.69
2022-10-17T20:06:21.260Z,99375.91
2022-10-17T20:08:48.360Z,99369.31
2022-10-17T20:11:17.624Z,99379.78
2022-10-17T20:13:44.875Z,99375.91
2022-10-17T20:16:14.005Z,99364.44
2022-10-17T20:18:41.077Z,99365.66
2022-10-17T20:21:10.987Z,99366.28
2022-10-17T20:23:38.512Z,99363.00
2022-10-17T20:26:25.385Z,99363.00
2022-10-17T20:28:53.656Z,99371.19
2022-10-17T20:31:20.864Z,99373.03
2022-10-17T20:33:47.491Z,99371.41
2022-10-17T20:36:14.718Z,99371.16
2022-10-17T20:38:41.219Z,99375.09
2022-10-17T20:41:09.805Z,99375.91
2022-10-17T20:43:37.193Z,99380.16
2022-10-17T20:46:21.897Z,99384.28
2022-10-17T20:48:54.730Z,99380.59
2022-10-17T20:51:21.752Z,99383.69
2022-10-17T20:53:48.933Z,99384.72
2022-10-17T20:56:21.472Z,99382.84
2022-10-17T20:58:56.222Z,99379.78
2022-10-17T21:01:24.017Z,99376.72
2022-10-17T21:03:51.301Z,99377.53
2022-10-17T21:06:19.037Z,99386.13
2022-10-17T21:08:46.978Z,99383.88
2022-10-17T21:11:19.720Z,99375.91
2022-10-17T21:13:47.513Z,99372.63
2022-10-17T21:16:18.784Z,99382.88
2022-10-17T21:18:45.930Z,99383.06
2022-10-17T21:21:24.902Z,99382.44
2022-10-17T21:23:51.492Z,99388.19
2022-10-17T21:26:18.403Z,99383.06
2022-10-17T21:28:46.487Z,99384.91
2022-10-17T21:31:17.789Z,99391.47
2022-10-17T21:33:47.190Z,99400.28
2022-10-17T21:36:16.203Z,99395.97
2022-10-17T21:38:44.082Z,99393.13
2022-10-17T21:41:11.632Z,99394.13
2022-10-17T21:43:38.546Z,99395.78
2022-10-17T21:46:12.037Z,99399.25
2022-10-17T21:48:39.053Z,99398.22
2022-10-17T21:51:09.264Z,99392.91
2022-10-17T21:53:36.545Z,99390.84
2022-10-17T21:56:06.032Z,99374.28
2022-10-17T21:58:33.543Z,99381.25
2022-10-17T22:01:07.402Z,99379.41
2022-10-17T22:03:35.198Z,99379.38
2022-10-17T22:06:13.086Z,99377.53
2022-10-17T22:08:49.938Z,99375.50
2022-10-17T22:11:20.601Z,99379.78
2022-10-17T22:13:47.229Z,99383.50
2022-10-17T22:16:16.548Z,99383.66
2022-10-17T22:18:43.178Z,99378.13
2022-10-17T22:21:18.606Z,99382.03
2022-10-17T22:23:47.412Z,99379.19
2022-10-17T22:26:14.298Z,99379.97
2022-10-17T22:28:41.272Z,99384.44
2022-10-17T22:31:08.930Z,99391.66
2022-10-17T22:33:37.224Z,99386.75
2022-10-17T22:36:04.486Z,99383.88
2022-10-17T22:38:31.236Z,99386.13
2022-10-17T22:40:57.753Z,99379.78
2022-10-17T22:43:25.438Z,99378.75
2022-10-17T22:45:53.443Z,99381.00
2022-10-17T22:48:20.503Z,99386.75
2022-10-17T22:50:48.600Z,99380.19
2022-10-17T22:53:22.986Z,99370.38
2022-10-17T22:55:54.305Z,99370.16
2022-10-17T22:58:21.437Z,99365.88
2022-10-17T23:00:49.145Z,99360.75
2022-10-17T23:03:15.699Z,99349.28
2022-10-17T23:05:42.125Z,99350.91
2022-10-17T23:08:09.066Z,99336.56
2022-10-17T23:10:35.633Z,99340.25
2022-10-17T23:13:02.400Z,99337.41
2022-10-17T23:15:28.889Z,99338.84
2022-10-17T23:17:55.415Z,99343.13
2022-10-17T23:20:21.936Z,99347.66
2022-10-17T23:22:48.797Z,99335.16
2022-10-17T23:25:15.358Z,99342.34
2022-10-17T23:27:41.794Z,99341.47
2022-10-17T23:30:08.514Z,99352.69
2022-10-17T23:32:34.999Z,99353.72
2022-10-17T23:35:01.467Z,99347.19
2022-10-17T23:37:28.052Z,99347.81
2022-10-17T23:39:54.795Z,99351.31
2022-10-17T23:42:21.287Z,99341.50
2022-10-17T23:44:47.788Z,99344.16
2022-10-17T23:47:14.401Z,99341.09
2022-10-17T23:49:40.898Z,99341.91
2022-10-17T23:52:07.552Z,99333.91
2022-10-17T23:54:34.147Z,99333.91
2022-10-17T23:57:00.707Z,99330.22
2022-10-17T23:59:27.166Z,99324.50
